createdAt,value
2023-04-30T00:15:51.357Z,16.16
2023-04-30T00:45:53.753Z,19.94
2023-04-30T01:15:56.245Z,18.10
2023-04-30T01:45:58.801Z,15.79
2023-04-30T02:16:01.392Z,13.67
2023-04-30T02:46:03.781Z,11.22
2023-04-30T03:16:06.269Z,15.18
2023-04-30T03:46:06.599Z,15.05
2023-04-30T04:16:09.125Z,19.42
2023-04-30T04:46:14.304Z,19.67
2023-04-30T05:22:55.221Z,14.30
2023-04-30T05:52:57.371Z,8.96
2023-04-30T06:22:59.968Z,6.70
2023-04-30T06:53:02.384Z,6.38
2023-04-30T07:23:04.904Z,6.44
2023-04-30T07:53:05.606Z,5.32
2023-04-30T08:23:09.455Z,4.61
2023-04-30T08:53:09.730Z,3.95
2023-04-30T09:23:12.197Z,3.62
2023-04-30T09:53:15.863Z,2.95
2023-04-30T10:23:18.354Z,2.00
2023-04-30T10:53:20.924Z,1.87
2023-04-30T11:23:32.273Z,2.36
2023-04-30T11:53:29.241Z,2.15
2023-04-30T12:23:29.790Z,2.46
2023-04-30T12:53:32.432Z,2.70
2023-04-30T13:23:44.531Z,2.85
2023-04-30T13:53:37.633Z,2.27
2023-04-30T14:23:40.097Z,2.36
2023-04-30T14:53:46.876Z,1.75
2023-04-30T15:23:50.844Z,1.79
2023-04-30T15:53:53.141Z,2.36
2023-04-30T16:23:55.884Z,2.67
2023-04-30T17:12:57.047Z,3.67
2023-04-30T17:42:59.040Z,5.07
2023-04-30T18:13:01.479Z,4.46
2023-04-30T18:43:04.858Z,5.22
2023-04-30T19:13:09.282Z,6.63
2023-04-30T19:43:13.435Z,10.75
2023-04-30T20:13:11.590Z,7.76
2023-04-30T20:43:17.635Z,6.19
2023-04-30T21:13:22.487Z,6.86
2023-04-30T21:43:23.707Z,5.38
2023-04-30T22:13:25.782Z,5.83
2023-04-30T22:43:29.240Z,5.70
2023-04-30T23:13:31.992Z,5.74
2023-04-30T23:43:34.483Z,6.07
